sensor_id;sensor_type;location;lat;lon;timestamp;P1;durP1;ratioP1;P2;durP2;ratioP2
57826;SDS011;43656;57.746;11.780;2023-03-05T00:01:28;2.17;;;0.30;;
57826;SDS011;43656;57.746;11.780;2023-03-05T00:03:59;1.58;;;0.32;;
57826;SDS011;43656;57.746;11.780;2023-03-05T00:06:27;1.23;;;0.20;;
57826;SDS011;43656;57.746;11.780;2023-03-05T00:08:55;2.75;;;0.40;;
57826;SDS011;43656;57.746;11.780;2023-03-05T00:11:22;2.92;;;0.32;;
57826;SDS011;43656;57.746;11.780;2023-03-05T00:13:52;2.40;;;0.40;;
57826;SDS011;43656;57.746;11.780;2023-03-05T00:16:18;1.35;;;0.30;;
57826;SDS011;43656;57.746;11.780;2023-03-05T00:18:44;0.95;;;0.20;;
57826;SDS011;43656;57.746;11.780;2023-03-05T00:21:16;2.28;;;0.40;;
57826;SDS011;43656;57.746;11.780;2023-03-05T00:23:50;0.85;;;0.20;;
57826;SDS011;43656;57.746;11.780;2023-03-05T00:26:17;1.25;;;0.30;;
57826;SDS011;43656;57.746;11.780;2023-03-05T00:28:46;1.27;;;0.30;;
57826;SDS011;43656;57.746;11.780;2023-03-05T00:31:16;1.00;;;0.30;;
57826;SDS011;43656;57.746;11.780;2023-03-05T00:33:44;1.40;;;0.38;;
57826;SDS011;43656;57.746;11.780;2023-03-05T00:36:10;0.82;;;0.30;;
57826;SDS011;43656;57.746;11.780;2023-03-05T00:38:36;1.58;;;0.40;;
57826;SDS011;43656;57.746;11.780;2023-03-05T00:41:01;1.38;;;0.30;;
57826;SDS011;43656;57.746;11.780;2023-03-05T00:43:28;1.40;;;0.30;;
57826;SDS011;43656;57.746;11.780;2023-03-05T00:45:53;1.77;;;0.40;;
57826;SDS011;43656;57.746;11.780;2023-03-05T00:48:19;1.80;;;0.30;;
57826;SDS011;43656;57.746;11.780;2023-03-05T00:50:45;1.27;;;0.20;;
57826;SDS011;43656;57.746;11.780;2023-03-05T00:53:10;1.23;;;0.35;;
57826;SDS011;43656;57.746;11.780;2023-03-05T00:55:36;2.70;;;0.50;;
57826;SDS011;43656;57.746;11.780;2023-03-05T00:58:01;3.05;;;0.40;;
57826;SDS011;43656;57.746;11.780;2023-03-05T01:00:27;1.33;;;0.30;;
57826;SDS011;43656;57.746;11.780;2023-03-05T01:02:53;1.58;;;0.10;;
57826;SDS011;43656;57.746;11.780;2023-03-05T01:05:18;0.55;;;0.17;;
57826;SDS011;43656;57.746;11.780;2023-03-05T01:07:44;1.00;;;0.20;;
57826;SDS011;43656;57.746;11.780;2023-03-05T01:10:10;1.00;;;0.30;;
57826;SDS011;43656;57.746;11.780;2023-03-05T01:12:37;1.15;;;0.30;;
57826;SDS011;43656;57.746;11.780;2023-03-05T01:15:03;1.05;;;0.20;;
57826;SDS011;43656;57.746;11.780;2023-03-05T01:17:28;0.90;;;0.20;;
57826;SDS011;43656;57.746;11.780;2023-03-05T01:19:54;0.85;;;0.17;;
57826;SDS011;43656;57.746;11.780;2023-03-05T01:22:19;1.08;;;0.30;;
57826;SDS011;43656;57.746;11.780;2023-03-05T01:24:45;1.15;;;0.20;;
57826;SDS011;43656;57.746;11.780;2023-03-05T01:27:10;2.63;;;0.30;;
57826;SDS011;43656;57.746;11.780;2023-03-05T01:29:36;1.23;;;0.20;;
57826;SDS011;43656;57.746;11.780;2023-03-05T01:32:01;0.55;;;0.17;;
57826;SDS011;43656;57.746;11.780;2023-03-05T01:34:27;0.63;;;0.20;;
57826;SDS011;43656;57.746;11.780;2023-03-05T01:36:52;0.82;;;0.20;;
57826;SDS011;43656;57.746;11.780;2023-03-05T01:39:18;0.55;;;0.10;;
57826;SDS011;43656;57.746;11.780;2023-03-05T01:41:43;0.73;;;0.20;;
57826;SDS011;43656;57.746;11.780;2023-03-05T01:47:00;1.60;;;0.30;;
57826;SDS011;43656;57.746;11.780;2023-03-05T01:49:26;1.38;;;0.30;;
57826;SDS011;43656;57.746;11.780;2023-03-05T01:52:03;1.52;;;0.20;;
57826;SDS011;43656;57.746;11.780;2023-03-05T01:54:41;0.80;;;0.17;;
57826;SDS011;43656;57.746;11.780;2023-03-05T01:57:18;1.42;;;0.30;;
57826;SDS011;43656;57.746;11.780;2023-03-05T01:59:52;1.00;;;0.22;;
57826;SDS011;43656;57.746;11.780;2023-03-05T02:02:21;2.65;;;0.40;;
57826;SDS011;43656;57.746;11.780;2023-03-05T02:04:49;2.47;;;0.30;;
57826;SDS011;43656;57.746;11.780;2023-03-05T02:07:26;1.48;;;0.20;;
57826;SDS011;43656;57.746;11.780;2023-03-05T02:09:53;1.70;;;0.30;;
57826;SDS011;43656;57.746;11.780;2023-03-05T02:12:18;0.68;;;0.10;;
57826;SDS011;43656;57.746;11.780;2023-03-05T02:14:45;1.13;;;0.20;;
57826;SDS011;43656;57.746;11.780;2023-03-05T02:17:15;1.13;;;0.22;;
57826;SDS011;43656;57.746;11.780;2023-03-05T02:19:50;0.73;;;0.20;;
57826;SDS011;43656;57.746;11.780;2023-03-05T02:22:19;0.30;;;0.10;;
57826;SDS011;43656;57.746;11.780;2023-03-05T02:24:46;1.83;;;0.20;;
57826;SDS011;43656;57.746;11.780;2023-03-05T02:27:12;1.23;;;0.28;;
57826;SDS011;43656;57.746;11.780;2023-03-05T02:29:39;1.15;;;0.17;;
57826;SDS011;43656;57.746;11.780;2023-03-05T02:32:09;0.85;;;0.25;;
57826;SDS011;43656;57.746;11.780;2023-03-05T02:34:35;0.50;;;0.15;;
57826;SDS011;43656;57.746;11.780;2023-03-05T02:37:01;1.33;;;0.20;;
57826;SDS011;43656;57.746;11.780;2023-03-05T02:39:28;2.28;;;0.30;;
57826;SDS011;43656;57.746;11.780;2023-03-05T02:41:57;0.50;;;0.10;;
57826;SDS011;43656;57.746;11.780;2023-03-05T02:44:22;1.33;;;0.15;;
57826;SDS011;43656;57.746;11.780;2023-03-05T02:46:48;1.23;;;0.30;;
57826;SDS011;43656;57.746;11.780;2023-03-05T02:49:13;1.05;;;0.32;;
57826;SDS011;43656;57.746;11.780;2023-03-05T02:51:39;1.02;;;0.20;;
57826;SDS011;43656;57.746;11.780;2023-03-05T02:54:04;1.92;;;0.32;;
57826;SDS011;43656;57.746;11.780;2023-03-05T02:56:30;0.65;;;0.20;;
57826;SDS011;43656;57.746;11.780;2023-03-05T02:58:55;1.83;;;0.20;;
57826;SDS011;43656;57.746;11.780;2023-03-05T03:01:21;1.40;;;0.40;;
57826;SDS011;43656;57.746;11.780;2023-03-05T03:03:46;1.63;;;0.20;;
57826;SDS011;43656;57.746;11.780;2023-03-05T03:06:12;0.60;;;0.10;;
57826;SDS011;43656;57.746;11.780;2023-03-05T03:08:37;0.93;;;0.30;;
57826;SDS011;43656;57.746;11.780;2023-03-05T03:11:03;1.80;;;0.30;;
57826;SDS011;43656;57.746;11.780;2023-03-05T03:13:32;0.93;;;0.20;;
57826;SDS011;43656;57.746;11.780;2023-03-05T03:16:02;3.40;;;0.30;;
57826;SDS011;43656;57.746;11.780;2023-03-05T03:18:29;2.30;;;0.30;;
57826;SDS011;43656;57.746;11.780;2023-03-05T03:20:55;1.10;;;0.25;;
57826;SDS011;43656;57.746;11.780;2023-03-05T03:23:20;2.35;;;0.22;;
57826;SDS011;43656;57.746;11.780;2023-03-05T03:25:46;1.55;;;0.22;;
57826;SDS011;43656;57.746;11.780;2023-03-05T03:28:11;0.45;;;0.10;;
57826;SDS011;43656;57.746;11.780;2023-03-05T03:30:36;1.58;;;0.20;;
57826;SDS011;43656;57.746;11.780;2023-03-05T03:33:02;0.30;;;0.10;;
57826;SDS011;43656;57.746;11.780;2023-03-05T03:35:27;1.30;;;0.20;;
57826;SDS011;43656;57.746;11.780;2023-03-05T03:37:53;1.13;;;0.30;;
57826;SDS011;43656;57.746;11.780;2023-03-05T03:40:18;0.47;;;0.10;;
57826;SDS011;43656;57.746;11.780;2023-03-05T03:42:44;2.03;;;0.20;;
57826;SDS011;43656;57.746;11.780;2023-03-05T03:45:09;3.42;;;0.30;;
57826;SDS011;43656;57.746;11.780;2023-03-05T03:47:35;1.65;;;0.20;;
57826;SDS011;43656;57.746;11.780;2023-03-05T03:50:00;0.60;;;0.15;;
57826;SDS011;43656;57.746;11.780;2023-03-05T03:52:26;1.50;;;0.25;;
57826;SDS011;43656;57.746;11.780;2023-03-05T03:54:51;1.65;;;0.40;;
57826;SDS011;43656;57.746;11.780;2023-03-05T03:57:17;2.85;;;0.28;;
57826;SDS011;43656;57.746;11.780;2023-03-05T03:59:43;0.45;;;0.20;;
57826;SDS011;43656;57.746;11.780;2023-03-05T04:02:10;1.80;;;0.20;;
57826;SDS011;43656;57.746;11.780;2023-03-05T04:04:35;1.08;;;0.50;;
57826;SDS011;43656;57.746;11.780;2023-03-05T04:07:00;1.73;;;0.10;;
57826;SDS011;43656;57.746;11.780;2023-03-05T04:09:26;0.30;;;0.10;;
57826;SDS011;43656;57.746;11.780;2023-03-05T04:11:51;0.75;;;0.20;;
57826;SDS011;43656;57.746;11.780;2023-03-05T04:14:17;1.38;;;0.30;;
57826;SDS011;43656;57.746;11.780;2023-03-05T04:16:42;1.15;;;0.10;;
57826;SDS011;43656;57.746;11.780;2023-03-05T04:19:08;1.27;;;0.38;;
57826;SDS011;43656;57.746;11.780;2023-03-05T04:21:33;2.08;;;0.20;;
57826;SDS011;43656;57.746;11.780;2023-03-05T04:23:58;4.35;;;0.30;;
57826;SDS011;43656;57.746;11.780;2023-03-05T04:26:24;0.82;;;0.20;;
57826;SDS011;43656;57.746;11.780;2023-03-05T04:28:49;0.93;;;0.17;;
57826;SDS011;43656;57.746;11.780;2023-03-05T04:31:15;0.47;;;0.10;;
57826;SDS011;43656;57.746;11.780;2023-03-05T04:33:41;1.15;;;0.15;;
57826;SDS011;43656;57.746;11.780;2023-03-05T04:36:06;0.45;;;0.20;;
57826;SDS011;43656;57.746;11.780;2023-03-05T04:38:32;1.65;;;0.20;;
57826;SDS011;43656;57.746;11.780;2023-03-05T04:40:57;1.00;;;0.20;;
57826;SDS011;43656;57.746;11.780;2023-03-05T04:43:23;1.17;;;0.20;;
57826;SDS011;43656;57.746;11.780;2023-03-05T04:45:48;1.23;;;0.20;;
57826;SDS011;43656;57.746;11.780;2023-03-05T04:48:14;0.45;;;0.10;;
57826;SDS011;43656;57.746;11.780;2023-03-05T04:50:41;0.95;;;0.30;;
57826;SDS011;43656;57.746;11.780;2023-03-05T04:53:06;1.05;;;0.28;;
57826;SDS011;43656;57.746;11.780;2023-03-05T04:55:32;1.15;;;0.20;;
57826;SDS011;43656;57.746;11.780;2023-03-05T04:57:57;1.85;;;0.20;;
57826;SDS011;43656;57.746;11.780;2023-03-05T05:00:23;0.52;;;0.25;;
57826;SDS011;43656;57.746;11.780;2023-03-05T05:02:49;0.73;;;0.17;;
57826;SDS011;43656;57.746;11.780;2023-03-05T05:05:20;0.55;;;0.10;;
57826;SDS011;43656;57.746;11.780;2023-03-05T05:07:48;0.80;;;0.15;;
57826;SDS011;43656;57.746;11.780;2023-03-05T05:10:13;2.38;;;0.47;;
57826;SDS011;43656;57.746;11.780;2023-03-05T05:12:40;0.70;;;0.15;;
57826;SDS011;43656;57.746;11.780;2023-03-05T05:15:05;1.58;;;0.20;;
57826;SDS011;43656;57.746;11.780;2023-03-05T05:17:32;0.65;;;0.20;;
57826;SDS011;43656;57.746;11.780;2023-03-05T05:19:58;1.55;;;0.20;;
57826;SDS011;43656;57.746;11.780;2023-03-05T05:22:25;1.30;;;0.20;;
57826;SDS011;43656;57.746;11.780;2023-03-05T05:24:52;2.78;;;0.20;;
57826;SDS011;43656;57.746;11.780;2023-03-05T05:27:17;0.38;;;0.10;;
57826;SDS011;43656;57.746;11.780;2023-03-05T05:29:43;0.90;;;0.20;;
57826;SDS011;43656;57.746;11.780;2023-03-05T05:32:10;1.35;;;0.30;;
57826;SDS011;43656;57.746;11.780;2023-03-05T05:34:36;0.88;;;0.20;;
57826;SDS011;43656;57.746;11.780;2023-03-05T05:37:01;1.00;;;0.10;;
57826;SDS011;43656;57.746;11.780;2023-03-05T05:39:26;0.73;;;0.20;;
57826;SDS011;43656;57.746;11.780;2023-03-05T05:41:52;1.15;;;0.22;;
57826;SDS011;43656;57.746;11.780;2023-03-05T05:44:17;1.90;;;0.20;;
57826;SDS011;43656;57.746;11.780;2023-03-05T05:46:43;2.72;;;0.20;;
57826;SDS011;43656;57.746;11.780;2023-03-05T05:49:08;1.33;;;0.20;;
57826;SDS011;43656;57.746;11.780;2023-03-05T05:51:34;1.25;;;0.13;;
57826;SDS011;43656;57.746;11.780;2023-03-05T05:53:59;0.45;;;0.17;;
57826;SDS011;43656;57.746;11.780;2023-03-05T05:56:25;0.28;;;0.10;;
57826;SDS011;43656;57.746;11.780;2023-03-05T05:58:50;2.30;;;0.38;;
57826;SDS011;43656;57.746;11.780;2023-03-05T06:03:49;1.38;;;0.38;;
57826;SDS011;43656;57.746;11.780;2023-03-05T06:06:16;1.48;;;0.28;;
57826;SDS011;43656;57.746;11.780;2023-03-05T06:08:43;0.85;;;0.10;;
57826;SDS011;43656;57.746;11.780;2023-03-05T06:11:09;0.43;;;0.10;;
57826;SDS011;43656;57.746;11.780;2023-03-05T06:13:35;0.63;;;0.15;;
57826;SDS011;43656;57.746;11.780;2023-03-05T06:16:02;1.52;;;0.20;;
57826;SDS011;43656;57.746;11.780;2023-03-05T06:18:29;0.85;;;0.20;;
57826;SDS011;43656;57.746;11.780;2023-03-05T06:20:59;0.30;;;0.10;;
57826;SDS011;43656;57.746;11.780;2023-03-05T06:23:27;1.35;;;0.15;;
57826;SDS011;43656;57.746;11.780;2023-03-05T06:25:53;0.95;;;0.17;;
57826;SDS011;43656;57.746;11.780;2023-03-05T06:28:19;2.72;;;0.20;;
57826;SDS011;43656;57.746;11.780;2023-03-05T06:30:45;0.73;;;0.10;;
57826;SDS011;43656;57.746;11.780;2023-03-05T06:33:11;1.15;;;0.20;;
57826;SDS011;43656;57.746;11.780;2023-03-05T06:35:37;1.17;;;0.20;;
57826;SDS011;43656;57.746;11.780;2023-03-05T06:38:04;0.98;;;0.35;;
57826;SDS011;43656;57.746;11.780;2023-03-05T06:40:30;0.77;;;0.20;;
57826;SDS011;43656;57.746;11.780;2023-03-05T06:42:55;0.85;;;0.13;;
57826;SDS011;43656;57.746;11.780;2023-03-05T06:45:21;1.75;;;0.20;;
57826;SDS011;43656;57.746;11.780;2023-03-05T06:47:46;0.40;;;0.20;;
57826;SDS011;43656;57.746;11.780;2023-03-05T06:50:11;0.70;;;0.20;;
57826;SDS011;43656;57.746;11.780;2023-03-05T06:52:37;1.42;;;0.10;;
57826;SDS011;43656;57.746;11.780;2023-03-05T06:55:05;0.52;;;0.20;;
57826;SDS011;43656;57.746;11.780;2023-03-05T06:57:31;0.95;;;0.30;;
57826;SDS011;43656;57.746;11.780;2023-03-05T06:59:56;0.88;;;0.28;;
57826;SDS011;43656;57.746;11.780;2023-03-05T07:02:22;1.45;;;0.17;;
57826;SDS011;43656;57.746;11.780;2023-03-05T07:04:47;2.28;;;0.10;;
57826;SDS011;43656;57.746;11.780;2023-03-05T07:07:13;2.35;;;0.20;;
57826;SDS011;43656;57.746;11.780;2023-03-05T07:09:38;0.68;;;0.17;;
57826;SDS011;43656;57.746;11.780;2023-03-05T07:12:08;0.85;;;0.25;;
57826;SDS011;43656;57.746;11.780;2023-03-05T07:14:35;1.10;;;0.20;;
57826;SDS011;43656;57.746;11.780;2023-03-05T07:17:01;1.17;;;0.20;;
57826;SDS011;43656;57.746;11.780;2023-03-05T07:19:27;1.63;;;0.10;;
57826;SDS011;43656;57.746;11.780;2023-03-05T07:21:52;2.05;;;0.17;;
57826;SDS011;43656;57.746;11.780;2023-03-05T07:24:17;0.80;;;0.20;;
57826;SDS011;43656;57.746;11.780;2023-03-05T07:26:43;0.40;;;0.20;;
57826;SDS011;43656;57.746;11.780;2023-03-05T07:29:08;0.77;;;0.10;;
57826;SDS011;43656;57.746;11.780;2023-03-05T07:31:34;0.80;;;0.32;;
57826;SDS011;43656;57.746;11.780;2023-03-05T07:34:00;1.10;;;0.20;;
57826;SDS011;43656;57.746;11.780;2023-03-05T07:36:26;1.00;;;0.20;;
57826;SDS011;43656;57.746;11.780;2023-03-05T07:38:52;0.93;;;0.30;;
57826;SDS011;43656;57.746;11.780;2023-03-05T07:41:18;0.82;;;0.20;;
57826;SDS011;43656;57.746;11.780;2023-03-05T07:43:45;0.38;;;0.10;;
57826;SDS011;43656;57.746;11.780;2023-03-05T07:46:13;0.55;;;0.15;;
57826;SDS011;43656;57.746;11.780;2023-03-05T07:48:39;3.03;;;0.50;;
57826;SDS011;43656;57.746;11.780;2023-03-05T07:51:06;0.20;;;0.10;;
57826;SDS011;43656;57.746;11.780;2023-03-05T07:53:34;0.77;;;0.22;;
57826;SDS011;43656;57.746;11.780;2023-03-05T07:55:59;1.92;;;0.30;;
57826;SDS011;43656;57.746;11.780;2023-03-05T07:58:25;1.55;;;0.20;;
57826;SDS011;43656;57.746;11.780;2023-03-05T08:00:50;1.38;;;0.10;;
57826;SDS011;43656;57.746;11.780;2023-03-05T08:03:16;0.90;;;0.20;;
57826;SDS011;43656;57.746;11.780;2023-03-05T08:05:41;0.52;;;0.10;;
57826;SDS011;43656;57.746;11.780;2023-03-05T08:08:07;1.75;;;0.30;;
57826;SDS011;43656;57.746;11.780;2023-03-05T08:10:33;0.60;;;0.10;;
57826;SDS011;43656;57.746;11.780;2023-03-05T08:13:00;0.30;;;0.10;;
57826;SDS011;43656;57.746;11.780;2023-03-05T08:15:26;1.40;;;0.20;;
57826;SDS011;43656;57.746;11.780;2023-03-05T08:17:52;1.50;;;0.30;;
57826;SDS011;43656;57.746;11.780;2023-03-05T08:20:17;1.00;;;0.25;;
57826;SDS011;43656;57.746;11.780;2023-03-05T08:22:43;2.78;;;0.30;;
57826;SDS011;43656;57.746;11.780;2023-03-05T08:25:09;1.77;;;0.30;;
57826;SDS011;43656;57.746;11.780;2023-03-05T08:27:39;1.83;;;0.25;;
57826;SDS011;43656;57.746;11.780;2023-03-05T08:30:13;2.72;;;0.20;;
57826;SDS011;43656;57.746;11.780;2023-03-05T08:32:40;0.90;;;0.30;;
57826;SDS011;43656;57.746;11.780;2023-03-05T08:35:07;1.05;;;0.20;;
57826;SDS011;43656;57.746;11.780;2023-03-05T08:37:33;2.15;;;0.40;;
57826;SDS011;43656;57.746;11.780;2023-03-05T08:39:59;1.02;;;0.28;;
57826;SDS011;43656;57.746;11.780;2023-03-05T08:42:24;2.55;;;0.50;;
57826;SDS011;43656;57.746;11.780;2023-03-05T08:44:49;1.13;;;0.20;;
57826;SDS011;43656;57.746;11.780;2023-03-05T08:47:15;0.88;;;0.17;;
57826;SDS011;43656;57.746;11.780;2023-03-05T08:49:42;2.83;;;0.47;;
57826;SDS011;43656;57.746;11.780;2023-03-05T08:52:08;1.60;;;0.40;;
57826;SDS011;43656;57.746;11.780;2023-03-05T08:54:35;0.90;;;0.10;;
57826;SDS011;43656;57.746;11.780;2023-03-05T08:57:01;1.33;;;0.28;;
57826;SDS011;43656;57.746;11.780;2023-03-05T08:59:27;0.43;;;0.20;;
57826;SDS011;43656;57.746;11.780;2023-03-05T09:01:52;0.80;;;0.10;;
57826;SDS011;43656;57.746;11.780;2023-03-05T09:04:18;1.15;;;0.10;;
57826;SDS011;43656;57.746;11.780;2023-03-05T09:06:43;0.65;;;0.20;;
57826;SDS011;43656;57.746;11.780;2023-03-05T09:09:08;2.33;;;0.40;;
57826;SDS011;43656;57.746;11.780;2023-03-05T09:11:34;1.23;;;0.10;;
57826;SDS011;43656;57.746;11.780;2023-03-05T09:14:04;1.48;;;0.20;;
57826;SDS011;43656;57.746;11.780;2023-03-05T09:16:30;1.50;;;0.28;;
57826;SDS011;43656;57.746;11.780;2023-03-05T09:18:57;1.23;;;0.30;;
57826;SDS011;43656;57.746;11.780;2023-03-05T09:21:23;1.05;;;0.25;;
57826;SDS011;43656;57.746;11.780;2023-03-05T09:23:49;3.42;;;0.60;;
57826;SDS011;43656;57.746;11.780;2023-03-05T09:26:15;2.20;;;0.20;;
57826;SDS011;43656;57.746;11.780;2023-03-05T09:28:43;2.28;;;0.28;;
57826;SDS011;43656;57.746;11.780;2023-03-05T09:31:10;1.25;;;0.32;;
57826;SDS011;43656;57.746;11.780;2023-03-05T09:33:36;4.32;;;0.40;;
57826;SDS011;43656;57.746;11.780;2023-03-05T09:36:02;1.52;;;0.35;;
57826;SDS011;43656;57.746;11.780;2023-03-05T09:38:29;4.43;;;0.38;;
57826;SDS011;43656;57.746;11.780;2023-03-05T09:41:04;1.23;;;0.20;;
57826;SDS011;43656;57.746;11.780;2023-03-05T09:44:01;3.28;;;0.50;;
57826;SDS011;43656;57.746;11.780;2023-03-05T09:51:44;1.20;;;0.32;;
57826;SDS011;43656;57.746;11.780;2023-03-05T09:54:16;1.15;;;0.20;;
57826;SDS011;43656;57.746;11.780;2023-03-05T09:56:46;0.95;;;0.25;;
57826;SDS011;43656;57.746;11.780;2023-03-05T10:01:52;3.45;;;0.50;;
57826;SDS011;43656;57.746;11.780;2023-03-05T10:06:57;2.75;;;0.50;;
57826;SDS011;43656;57.746;11.780;2023-03-05T10:11:59;1.55;;;0.50;;
57826;SDS011;43656;57.746;11.780;2023-03-05T10:14:31;3.03;;;0.50;;
57826;SDS011;43656;57.746;11.780;2023-03-05T10:22:17;1.92;;;0.40;;
57826;SDS011;43656;57.746;11.780;2023-03-05T10:27:41;2.33;;;0.40;;
57826;SDS011;43656;57.746;11.780;2023-03-05T10:38:07;2.78;;;0.73;;
57826;SDS011;43656;57.746;11.780;2023-03-05T10:40:52;2.60;;;0.50;;
57826;SDS011;43656;57.746;11.780;2023-03-05T10:45:44;4.22;;;0.60;;
57826;SDS011;43656;57.746;11.780;2023-03-05T10:48:36;3.75;;;0.50;;
57826;SDS011;43656;57.746;11.780;2023-03-05T10:51:23;2.78;;;0.60;;
57826;SDS011;43656;57.746;11.780;2023-03-05T10:54:18;4.80;;;0.50;;
57826;SDS011;43656;57.746;11.780;2023-03-05T10:56:49;1.30;;;0.50;;
57826;SDS011;43656;57.746;11.780;2023-03-05T10:59:14;4.45;;;0.73;;
57826;SDS011;43656;57.746;11.780;2023-03-05T11:01:40;1.45;;;0.20;;
57826;SDS011;43656;57.746;11.780;2023-03-05T11:04:06;1.23;;;0.30;;
57826;SDS011;43656;57.746;11.780;2023-03-05T11:06:53;2.35;;;0.40;;
57826;SDS011;43656;57.746;11.780;2023-03-05T11:09:26;3.83;;;0.73;;
57826;SDS011;43656;57.746;11.780;2023-03-05T11:14:32;3.30;;;0.43;;
57826;SDS011;43656;57.746;11.780;2023-03-05T11:17:00;4.20;;;0.60;;
57826;SDS011;43656;57.746;11.780;2023-03-05T11:19:31;4.82;;;0.40;;
57826;SDS011;43656;57.746;11.780;2023-03-05T11:22:14;2.28;;;0.40;;
57826;SDS011;43656;57.746;11.780;2023-03-05T11:24:43;2.22;;;0.52;;
57826;SDS011;43656;57.746;11.780;2023-03-05T11:27:21;4.07;;;0.70;;
57826;SDS011;43656;57.746;11.780;2023-03-05T11:29:50;2.47;;;0.50;;
57826;SDS011;43656;57.746;11.780;2023-03-05T11:32:20;3.83;;;0.63;;
57826;SDS011;43656;57.746;11.780;2023-03-05T11:34:48;4.78;;;0.50;;
57826;SDS011;43656;57.746;11.780;2023-03-05T11:42:55;3.30;;;0.50;;
57826;SDS011;43656;57.746;11.780;2023-03-05T11:45:22;5.00;;;0.80;;
57826;SDS011;43656;57.746;11.780;2023-03-05T11:47:50;2.22;;;0.43;;
57826;SDS011;43656;57.746;11.780;2023-03-05T11:52:45;4.43;;;0.63;;
57826;SDS011;43656;57.746;11.780;2023-03-05T12:01:23;4.50;;;0.40;;
57826;SDS011;43656;57.746;11.780;2023-03-05T12:03:51;6.93;;;0.77;;
57826;SDS011;43656;57.746;11.780;2023-03-05T12:20:19;3.80;;;0.60;;
57826;SDS011;43656;57.746;11.780;2023-03-05T12:22:57;2.30;;;0.40;;
57826;SDS011;43656;57.746;11.780;2023-03-05T12:25:33;2.65;;;0.40;;
57826;SDS011;43656;57.746;11.780;2023-03-05T12:28:14;2.33;;;0.52;;
57826;SDS011;43656;57.746;11.780;2023-03-05T12:38:52;2.80;;;0.60;;
57826;SDS011;43656;57.746;11.780;2023-03-05T12:44:07;4.40;;;0.80;;
57826;SDS011;43656;57.746;11.780;2023-03-05T12:51:59;4.10;;;0.47;;
57826;SDS011;43656;57.746;11.780;2023-03-05T12:54:38;3.40;;;0.63;;
57826;SDS011;43656;57.746;11.780;2023-03-05T12:57:15;3.53;;;0.80;;
57826;SDS011;43656;57.746;11.780;2023-03-05T12:59:45;4.22;;;0.77;;
57826;SDS011;43656;57.746;11.780;2023-03-05T13:02:31;2.13;;;0.43;;
57826;SDS011;43656;57.746;11.780;2023-03-05T13:05:06;5.03;;;0.73;;
57826;SDS011;43656;57.746;11.780;2023-03-05T13:13:40;2.45;;;0.65;;
57826;SDS011;43656;57.746;11.780;2023-03-05T13:16:41;3.10;;;0.70;;
57826;SDS011;43656;57.746;11.780;2023-03-05T13:21:36;2.13;;;0.60;;
57826;SDS011;43656;57.746;11.780;2023-03-05T13:24:02;3.63;;;0.85;;
57826;SDS011;43656;57.746;11.780;2023-03-05T13:26:38;3.58;;;0.95;;
57826;SDS011;43656;57.746;11.780;2023-03-05T13:31:39;5.38;;;0.95;;
57826;SDS011;43656;57.746;11.780;2023-03-05T13:34:10;3.42;;;0.75;;
57826;SDS011;43656;57.746;11.780;2023-03-05T13:36:38;3.22;;;0.70;;
57826;SDS011;43656;57.746;11.780;2023-03-05T13:39:19;2.78;;;0.70;;
57826;SDS011;43656;57.746;11.780;2023-03-05T13:41:57;5.07;;;0.63;;
57826;SDS011;43656;57.746;11.780;2023-03-05T13:44:25;2.17;;;0.60;;
57826;SDS011;43656;57.746;11.780;2023-03-05T13:46:51;2.38;;;0.70;;
57826;SDS011;43656;57.746;11.780;2023-03-05T13:51:54;1.75;;;0.32;;
57826;SDS011;43656;57.746;11.780;2023-03-05T13:54:21;3.03;;;0.60;;
57826;SDS011;43656;57.746;11.780;2023-03-05T13:56:59;2.95;;;0.52;;
57826;SDS011;43656;57.746;11.780;2023-03-05T13:59:35;1.85;;;0.60;;
57826;SDS011;43656;57.746;11.780;2023-03-05T14:02:16;3.00;;;0.70;;
57826;SDS011;43656;57.746;11.780;2023-03-05T14:04:44;2.78;;;0.63;;
57826;SDS011;43656;57.746;11.780;2023-03-05T14:09:48;3.60;;;0.75;;
57826;SDS011;43656;57.746;11.780;2023-03-05T14:12:27;2.00;;;0.40;;
57826;SDS011;43656;57.746;11.780;2023-03-05T14:15:03;3.15;;;0.60;;
57826;SDS011;43656;57.746;11.780;2023-03-05T14:17:41;2.63;;;0.60;;
57826;SDS011;43656;57.746;11.780;2023-03-05T14:22:36;1.48;;;0.30;;
57826;SDS011;43656;57.746;11.780;2023-03-05T14:25:03;2.25;;;0.43;;
57826;SDS011;43656;57.746;11.780;2023-03-05T14:27:32;3.03;;;0.50;;
57826;SDS011;43656;57.746;11.780;2023-03-05T14:30:00;5.78;;;0.63;;
57826;SDS011;43656;57.746;11.780;2023-03-05T14:32:34;2.95;;;0.70;;
57826;SDS011;43656;57.746;11.780;2023-03-05T14:35:01;2.42;;;0.60;;
57826;SDS011;43656;57.746;11.780;2023-03-05T14:37:37;1.25;;;0.60;;
57826;SDS011;43656;57.746;11.780;2023-03-05T14:42:49;2.95;;;0.60;;
57826;SDS011;43656;57.746;11.780;2023-03-05T14:47:45;3.97;;;0.82;;
57826;SDS011;43656;57.746;11.780;2023-03-05T14:50:21;1.65;;;0.40;;
57826;SDS011;43656;57.746;11.780;2023-03-05T14:53:01;2.47;;;0.60;;
57826;SDS011;43656;57.746;11.780;2023-03-05T14:55:31;3.95;;;0.50;;
57826;SDS011;43656;57.746;11.780;2023-03-05T14:58:09;2.03;;;0.40;;
57826;SDS011;43656;57.746;11.780;2023-03-05T15:00:37;6.18;;;0.80;;
57826;SDS011;43656;57.746;11.780;2023-03-05T15:03:03;1.65;;;0.40;;
57826;SDS011;43656;57.746;11.780;2023-03-05T15:05:28;3.85;;;0.88;;
57826;SDS011;43656;57.746;11.780;2023-03-05T15:07:54;2.40;;;0.50;;
57826;SDS011;43656;57.746;11.780;2023-03-05T15:10:21;3.58;;;0.65;;
57826;SDS011;43656;57.746;11.780;2023-03-05T15:12:48;4.00;;;0.63;;
57826;SDS011;43656;57.746;11.780;2023-03-05T15:15:14;3.10;;;0.47;;
57826;SDS011;43656;57.746;11.780;2023-03-05T15:17:41;1.80;;;0.30;;
57826;SDS011;43656;57.746;11.780;2023-03-05T15:20:14;4.20;;;0.50;;
57826;SDS011;43656;57.746;11.780;2023-03-05T15:22:44;7.55;;;0.60;;
57826;SDS011;43656;57.746;11.780;2023-03-05T15:25:09;2.22;;;0.45;;
57826;SDS011;43656;57.746;11.780;2023-03-05T15:27:36;2.42;;;0.63;;
57826;SDS011;43656;57.746;11.780;2023-03-05T15:30:02;3.75;;;0.68;;
57826;SDS011;43656;57.746;11.780;2023-03-05T15:32:28;6.68;;;0.70;;
57826;SDS011;43656;57.746;11.780;2023-03-05T15:34:55;4.10;;;0.77;;
57826;SDS011;43656;57.746;11.780;2023-03-05T15:37:22;4.03;;;0.63;;
57826;SDS011;43656;57.746;11.780;2023-03-05T15:39:48;4.10;;;1.00;;
57826;SDS011;43656;57.746;11.780;2023-03-05T15:42:13;4.20;;;0.70;;
57826;SDS011;43656;57.746;11.780;2023-03-05T15:44:38;2.50;;;0.50;;
57826;SDS011;43656;57.746;11.780;2023-03-05T15:47:04;5.00;;;0.55;;
57826;SDS011;43656;57.746;11.780;2023-03-05T15:49:30;5.03;;;0.60;;
57826;SDS011;43656;57.746;11.780;2023-03-05T15:51:56;4.25;;;0.70;;
57826;SDS011;43656;57.746;11.780;2023-03-05T15:54:22;3.05;;;0.60;;
57826;SDS011;43656;57.746;11.780;2023-03-05T15:56:48;4.60;;;0.70;;
57826;SDS011;43656;57.746;11.780;2023-03-05T15:59:13;2.33;;;0.40;;
57826;SDS011;43656;57.746;11.780;2023-03-05T16:01:40;3.78;;;0.55;;
57826;SDS011;43656;57.746;11.780;2023-03-05T16:04:13;4.20;;;0.80;;
57826;SDS011;43656;57.746;11.780;2023-03-05T16:06:39;2.67;;;0.75;;
57826;SDS011;43656;57.746;11.780;2023-03-05T16:09:05;4.15;;;0.65;;
57826;SDS011;43656;57.746;11.780;2023-03-05T16:11:31;3.03;;;0.93;;
57826;SDS011;43656;57.746;11.780;2023-03-05T16:14:03;6.00;;;1.08;;
57826;SDS011;43656;57.746;11.780;2023-03-05T16:16:31;2.95;;;0.60;;
57826;SDS011;43656;57.746;11.780;2023-03-05T16:18:59;3.25;;;0.65;;
57826;SDS011;43656;57.746;11.780;2023-03-05T16:21:28;5.95;;;0.98;;
57826;SDS011;43656;57.746;11.780;2023-03-05T16:23:54;2.83;;;0.73;;
57826;SDS011;43656;57.746;11.780;2023-03-05T16:26:20;5.15;;;0.70;;